Time;durP1;ratioP1;P1;durP2;ratioP2;P2;SDS_P1;SDS_P2;PMS_P1;PMS_P2;Temp;Humidity;BMP_temperature;BMP_pressure;BME280_temperature;BME280_humidity;BME280_pressure;Samples;Min_cycle;Max_cycle;Signal;HPM_P1;HPM_P2
2023/03/24 00:00:46;;;;;;;0.52;0.40;;;;;;;27.17;33.71;97285.13;7392746;19;20014;-83
2023/03/24 00:03:15;;;;;;;0.20;0.20;;;;;;;27.07;33.89;97299.75;7394786;19;20018;-83
2023/03/24 00:05:43;;;;;;;0.20;0.20;;;;;;;27.04;33.82;97290.34;7392156;19;20049;-84
2023/03/24 00:08:10;;;;;;;0.40;0.40;;;;;;;26.60;33.99;97291.31;7392553;19;20031;-84
2023/03/24 00:10:36;;;;;;;0.40;0.40;;;;;;;26.79;33.73;97298.56;7392468;19;20476;-82
2023/03/24 00:13:02;;;;;;;0.85;0.85;;;;;;;26.99;33.38;97288.72;7393795;19;20512;-84
2023/03/24 00:15:30;;;;;;;0.50;0.40;;;;;;;26.95;33.33;97294.25;7396872;19;20018;-84
2023/03/24 00:17:56;;;;;;;0.32;0.32;;;;;;;27.25;32.89;97302.59;7397476;19;20022;-83
2023/03/24 00:20:25;;;;;;;0.65;0.40;;;;;;;27.01;32.55;97297.38;7392094;19;20073;-83
2023/03/24 00:22:57;;;;;;;0.60;0.60;;;;;;;26.92;33.10;97297.69;7393838;19;20357;-84
2023/03/24 00:25:27;;;;;;;0.60;0.60;;;;;;;26.85;32.97;97299.56;7391553;19;20027;-83
2023/03/24 00:27:56;;;;;;;0.45;0.40;;;;;;;26.85;33.38;97308.13;7391985;19;20022;-84
2023/03/24 00:30:23;;;;;;;0.77;0.77;;;;;;;26.61;34.02;97315.63;7392396;19;20022;-84
2023/03/24 00:32:51;;;;;;;0.40;0.40;;;;;;;24.44;36.61;97325.06;7393220;19;20019;-84
2023/03/24 00:35:18;;;;;;;0.20;0.20;;;;;;;24.00;37.19;97321.34;7393744;19;20338;-84
2023/03/24 00:37:45;;;;;;;4.88;1.13;;;;;;;23.81;38.01;97324.56;7391918;19;20017;-83
2023/03/24 00:40:15;;;;;;;0.22;0.22;;;;;;;25.62;36.02;97310.34;7392761;19;20015;-84
2023/03/24 00:42:46;;;;;;;0.52;0.50;;;;;;;24.72;36.17;97327.28;7391556;19;20050;-83
2023/03/24 00:45:17;;;;;;;0.60;0.60;;;;;;;24.55;36.80;97327.06;7390551;19;20481;-83
2023/03/24 00:47:43;;;;;;;0.50;0.50;;;;;;;25.77;34.96;97314.63;7394040;19;20041;-84
2023/03/24 00:50:16;;;;;;;0.30;0.30;;;;;;;25.88;34.81;97314.44;7390593;19;20710;-83
2023/03/24 00:52:43;;;;;;;0.50;0.20;;;;;;;25.89;34.83;97335.16;7391472;19;20017;-83
2023/03/24 00:55:14;;;;;;;0.75;0.75;;;;;;;25.85;35.52;97323.56;7391116;19;20087;-84
2023/03/24 00:57:49;;;;;;;0.20;0.20;;;;;;;26.05;35.32;97327.34;7390888;19;20334;-82
2023/03/24 01:00:19;;;;;;;0.60;0.60;;;;;;;25.99;34.71;97339.19;7392709;19;20457;-83
2023/03/24 01:02:52;;;;;;;1.83;0.60;;;;;;;26.32;34.16;97344.28;7395254;19;20022;-83
2023/03/24 01:05:27;;;;;;;0.40;0.30;;;;;;;25.88;34.62;97347.94;7390177;19;20808;-83
2023/03/24 01:08:01;;;;;;;0.45;0.28;;;;;;;25.77;34.86;97348.84;7392475;19;20015;-83
2023/03/24 01:10:29;;;;;;;0.50;0.50;;;;;;;23.67;37.36;97366.41;7390107;19;20018;-82
2023/03/24 01:12:58;;;;;;;0.32;0.32;;;;;;;21.94;40.31;97361.78;7390381;19;20014;-82
2023/03/24 01:15:28;;;;;;;1.67;1.02;;;;;;;20.69;42.99;97373.44;7389504;19;20017;-82
2023/03/24 01:17:55;;;;;;;0.80;0.80;;;;;;;22.84;40.83;97371.53;7392156;19;20014;-83
2023/03/24 01:20:23;;;;;;;0.20;0.20;;;;;;;21.26;42.55;97368.72;7390500;19;20432;-83
2023/03/24 01:22:50;;;;;;;0.17;0.17;;;;;;;22.12;41.74;97371.41;7391403;19;20070;-83
2023/03/24 01:25:19;;;;;;;0.55;0.50;;;;;;;18.19;49.70;97380.66;7390865;19;20037;-83
2023/03/24 01:27:47;;;;;;;0.40;0.40;;;;;;;17.77;55.08;97380.19;7389858;19;20576;-83
2023/03/24 01:30:17;;;;;;;5.75;1.48;;;;;;;17.23;61.01;97382.19;7391757;19;20043;-83
2023/03/24 01:32:43;;;;;;;3.70;0.68;;;;;;;16.98;65.36;97392.06;7389640;19;20477;-84
2023/03/24 01:35:11;;;;;;;4.50;1.52;;;;;;;16.94;68.77;97388.88;7391097;19;20015;-83
2023/03/24 01:37:38;;;;;;;0.22;0.22;;;;;;;16.46;73.10;97396.81;7389656;19;20010;-83
2023/03/24 01:40:08;;;;;;;0.63;0.40;;;;;;;17.50;68.96;97407.56;7393105;19;20038;-83
2023/03/24 01:42:36;;;;;;;5.15;0.68;;;;;;;16.98;70.07;97403.28;7389745;19;20035;-83
2023/03/24 01:45:38;;;;;;;6.13;1.20;;;;;;;16.23;76.62;97399.81;7392749;19;20007;-83
2023/03/24 01:48:13;;;;;;;0.20;0.20;;;;;;;15.97;79.81;97406.00;7390757;19;20017;-83
2023/03/24 01:50:43;;;;;;;0.57;0.57;;;;;;;15.49;84.32;97413.00;7388573;19;20018;-84
2023/03/24 01:53:10;;;;;;;3.00;0.40;;;;;;;15.39;86.22;97409.28;7396505;19;20018;-83
2023/03/24 01:55:37;;;;;;;0.70;0.70;;;;;;;15.48;86.53;97412.28;7398567;19;20011;-82
2023/03/24 01:58:06;;;;;;;1.00;0.95;;;;;;;15.50;86.93;97422.94;7398548;19;20013;-87
2023/03/24 02:00:45;;;;;;;0.20;0.20;;;;;;;16.55;77.64;97413.81;7400106;19;20483;-86
2023/03/24 02:03:44;;;;;;;8.35;1.05;;;;;;;17.03;74.54;97421.97;7397643;19;20466;-84
2023/03/24 02:06:14;;;;;;;0.20;0.20;;;;;;;16.74;73.90;97412.53;7397672;19;20018;-84
2023/03/24 02:08:51;;;;;;;0.73;0.50;;;;;;;17.57;71.45;97417.22;7398948;19;20015;-88
2023/03/24 02:11:19;;;;;;;1.10;1.00;;;;;;;19.24;62.12;97413.22;7399401;19;20018;-88
2023/03/24 02:13:52;;;;;;;0.43;0.43;;;;;;;19.80;60.98;97419.44;7399043;19;20022;-85
2023/03/24 02:16:41;;;;;;;0.13;0.13;;;;;;;20.51;56.83;97423.09;7398043;19;20371;-87
2023/03/24 02:19:36;;;;;;;0.38;0.38;;;;;;;20.69;56.50;97415.09;7398069;19;20018;-83
2023/03/24 02:22:39;;;;;;;0.30;0.30;;;;;;;23.62;48.94;97415.13;7397951;19;20014;-86
2023/03/24 02:25:39;;;;;;;0.50;0.50;;;;;;;21.45;49.56;97419.50;7398216;19;20022;-85
2023/03/24 02:28:05;;;;;;;0.22;0.22;;;;;;;21.08;50.71;97419.94;7399814;19;20007;-91
2023/03/24 02:31:00;;;;;;;3.63;1.50;;;;;;;19.30;54.26;97430.59;7400623;19;20033;-89
2023/03/24 02:33:49;;;;;;;1.75;0.80;;;;;;;18.95;55.50;97429.41;7399467;19;20100;-89
2023/03/24 02:36:51;;;;;;;0.38;0.38;;;;;;;18.88;55.46;97431.03;7400001;19;20077;-89
2023/03/24 02:39:45;;;;;;;0.15;0.15;;;;;;;19.42;54.09;97440.75;7398793;19;20074;-89
2023/03/24 02:42:42;;;;;;;1.85;0.63;;;;;;;20.50;52.50;97438.59;7399790;19;20536;-90
2023/03/24 02:45:35;;;;;;;0.20;0.20;;;;;;;19.74;52.29;97433.13;7398942;19;20025;-90
2023/03/24 02:48:45;;;;;;;0.10;0.10;;;;;;;20.07;51.92;97432.03;7399601;19;20019;-90
2023/03/24 02:51:42;;;;;;;1.17;0.40;;;;;;;20.59;51.00;97434.97;7398367;19;20018;-90
2023/03/24 02:54:15;;;;;;;0.47;0.47;;;;;;;20.20;50.79;97433.63;7400190;19;20048;-90
2023/03/24 02:56:54;;;;;;;0.63;0.40;;;;;;;20.85;49.97;97422.63;7398785;19;20014;-90
2023/03/24 02:59:56;;;;;;;0.20;0.20;;;;;;;20.54;49.53;97438.09;7399894;19;20082;-90
2023/03/24 03:02:53;;;;;;;0.20;0.20;;;;;;;20.39;49.68;97437.16;7396853;19;20015;-90
2023/03/24 03:05:31;;;;;;;15.73;0.55;;;;;;;20.39;49.72;97427.91;7399169;19;20014;-91
2023/03/24 03:08:00;;;;;;;12.45;0.57;;;;;;;21.69;47.22;97421.09;7399974;19;20013;-90
2023/03/24 03:10:34;;;;;;;0.22;0.22;;;;;;;20.73;48.13;97421.78;7399134;19;20006;-89
2023/03/24 03:13:07;;;;;;;2.55;1.02;;;;;;;20.68;48.09;97436.28;7398292;19;20019;-89
2023/03/24 03:15:38;;;;;;;0.35;0.35;;;;;;;20.62;48.13;97433.75;7398095;19;20006;-89
2023/03/24 03:18:04;;;;;;;;;;;;;;;20.70;47.60;97437.16;7399426;19;20007;-89
2023/03/24 03:20:38;;;;;;;0.20;0.20;;;;;;;20.26;48.21;97436.91;7398587;19;19939;-89
2023/03/24 03:23:10;;;;;;;0.20;0.20;;;;;;;20.64;47.69;97431.06;7399490;19;20017;-90
2023/03/24 03:25:45;;;;;;;0.50;0.50;;;;;;;20.79;47.12;97430.69;7397116;19;20018;-90
2023/03/24 03:28:16;;;;;;;0.63;0.63;;;;;;;21.28;46.11;97436.78;7399272;19;20002;-90
2023/03/24 03:30:48;;;;;;;0.30;0.30;;;;;;;20.01;48.06;97439.34;7399062;19;20026;-89
2023/03/24 03:33:29;;;;;;;0.25;0.25;;;;;;;19.28;49.48;97434.03;7396963;19;20022;-89
2023/03/24 03:36:13;;;;;;;0.28;0.28;;;;;;;19.26;50.21;97453.63;7395546;19;20476;-89
2023/03/24 03:39:10;;;;;;;0.22;0.22;;;;;;;19.33;50.62;97447.09;7396034;19;20022;-89
2023/03/24 03:41:38;;;;;;;0.30;0.30;;;;;;;19.79;49.98;97449.03;7396949;19;20014;-89
2023/03/24 03:44:04;;;;;;;0.40;0.40;;;;;;;19.59;50.96;97451.88;7398951;19;20022;-89
2023/03/24 03:46:31;;;;;;;0.45;0.45;;;;;;;19.79;51.04;97449.03;7395449;19;20031;-89
2023/03/24 03:48:57;;;;;;;20.27;0.70;;;;;;;19.85;51.23;97455.13;7397320;19;20011;-88
2023/03/24 03:51:24;;;;;;;0.57;0.57;;;;;;;20.20;50.82;97456.22;7397178;19;20011;-89
2023/03/24 03:53:59;;;;;;;0.30;0.30;;;;;;;19.99;50.58;97448.38;7398548;19;20015;-89
2023/03/24 03:56:30;;;;;;;1.30;0.32;;;;;;;20.00;51.57;97449.88;7397443;19;20007;-89
2023/03/24 03:59:25;;;;;;;0.17;0.17;;;;;;;20.14;51.39;97450.16;7396758;19;20014;-89
2023/03/24 04:01:52;;;;;;;4.28;0.52;;;;;;;20.57;50.64;97453.88;7396490;19;20051;-89
2023/03/24 04:04:40;;;;;;;0.43;0.43;;;;;;;20.92;49.94;97444.31;7399037;19;20045;-89
2023/03/24 04:08:02;;;;;;;3.10;1.02;;;;;;;20.69;50.27;97449.78;7396079;19;20011;-89
2023/03/24 04:11:24;;;;;;;4.10;1.20;;;;;;;24.13;44.35;97450.00;7396261;19;20465;-88
2023/03/24 04:14:24;;;;;;;1.75;0.40;;;;;;;25.03;41.74;97451.28;7397185;19;20085;-89
2023/03/24 04:17:13;;;;;;;0.25;0.25;;;;;;;25.49;39.90;97445.16;7397262;19;20007;-89
2023/03/24 04:19:50;;;;;;;0.82;0.82;;;;;;;25.97;39.07;97446.75;7396336;19;20015;-89
2023/03/24 04:22:43;;;;;;;0.30;0.30;;;;;;;26.38;37.58;97453.03;7395362;19;20010;-89
2023/03/24 04:25:34;;;;;;;5.10;0.63;;;;;;;26.41;37.40;97451.75;7395104;19;20111;-89
2023/03/24 04:28:29;;;;;;;0.17;0.17;;;;;;;26.52;36.30;97462.25;7395877;19;20011;-89
2023/03/24 04:30:56;;;;;;;0.10;0.10;;;;;;;26.63;36.45;97467.06;7395250;19;20050;-89
2023/03/24 04:33:34;;;;;;;3.33;1.30;;;;;;;26.57;36.09;97471.75;7396359;19;20798;-89
2023/03/24 04:36:17;;;;;;;1.60;1.08;;;;;;;26.59;35.71;97469.72;7395325;19;20022;-88
2023/03/24 04:39:03;;;;;;;2.53;1.48;;;;;;;26.64;35.18;97476.34;7396707;19;20010;-89
2023/03/24 04:41:42;;;;;;;0.20;0.20;;;;;;;26.66;34.58;97474.31;7395726;19;20007;-89
2023/03/24 04:44:16;;;;;;;0.10;0.10;;;;;;;26.58;34.31;97478.91;7396592;19;20015;-89
2023/03/24 04:47:01;;;;;;;0.20;0.20;;;;;;;26.58;34.18;97482.50;7395901;19;20072;-89
2023/03/24 04:49:27;;;;;;;9.52;0.90;;;;;;;26.63;34.27;97475.63;7395804;19;20062;-89
2023/03/24 04:51:55;;;;;;;6.85;0.65;;;;;;;26.71;34.44;97475.97;7394808;19;20021;-89
2023/03/24 04:54:26;;;;;;;0.20;0.20;;;;;;;26.75;34.72;97470.47;7397253;19;20017;-89
2023/03/24 04:57:01;;;;;;;5.93;0.50;;;;;;;26.80;34.67;97477.84;7394474;19;20007;-89
2023/03/24 04:59:33;;;;;;;0.20;0.20;;;;;;;27.61;33.65;97481.41;7394695;19;20077;-89
2023/03/24 05:02:02;;;;;;;25.65;1.20;;;;;;;27.58;33.28;97482.69;7394785;19;20010;-89
2023/03/24 05:04:38;;;;;;;0.20;0.20;;;;;;;27.52;32.94;97485.31;7397264;19;20010;-89
2023/03/24 05:07:14;;;;;;;3.35;1.45;;;;;;;27.39;33.63;97486.19;7392822;19;20442;-88
2023/03/24 05:09:41;;;;;;;0.20;0.20;;;;;;;27.67;33.04;97481.66;7392956;19;20006;-88
2023/03/24 05:12:07;;;;;;;11.60;0.82;;;;;;;27.04;34.06;97484.66;7393278;19;20010;-89
2023/03/24 05:14:51;;;;;;;0.22;0.22;;;;;;;26.66;34.39;97494.31;7396281;19;20006;-89
2023/03/24 05:17:17;;;;;;;0.30;0.30;;;;;;;26.71;34.44;97490.25;7393891;19;20022;-89
2023/03/24 05:19:44;;;;;;;8.60;0.85;;;;;;;26.30;34.68;97493.34;7392647;19;20051;-89
2023/03/24 05:22:10;;;;;;;0.25;0.25;;;;;;;26.60;34.77;97499.72;7392914;19;20044;-90
2023/03/24 05:24:36;;;;;;;0.80;0.80;;;;;;;26.69;34.34;97490.16;7397382;19;20041;-90
2023/03/24 05:27:02;;;;;;;4.22;1.70;;;;;;;26.57;34.51;97494.59;7395323;19;20011;-90
2023/03/24 05:29:29;;;;;;;16.95;0.75;;;;;;;26.63;34.51;97498.47;7399112;19;20018;-90
2023/03/24 05:31:56;;;;;;;1.75;1.05;;;;;;;26.18;34.87;97498.47;7399635;19;20078;-89
2023/03/24 05:34:22;;;;;;;0.30;0.30;;;;;;;26.69;34.58;97486.56;7403092;19;20018;-89
2023/03/24 05:36:57;;;;;;;0.65;0.65;;;;;;;26.64;34.47;97493.50;7401576;19;20358;-90
2023/03/24 05:39:24;;;;;;;3.83;0.50;;;;;;;26.62;33.89;97488.41;7401628;19;20045;-90
2023/03/24 05:42:05;;;;;;;0.10;0.10;;;;;;;26.62;34.36;97502.69;7400717;19;20051;-89
2023/03/24 05:44:31;;;;;;;1.85;1.13;;;;;;;26.52;34.00;97505.06;7402300;19;20042;-90
2023/03/24 05:47:14;;;;;;;0.68;0.30;;;;;;;26.36;34.21;97515.72;7398365;19;20029;-86
2023/03/24 05:49:44;;;;;;;0.35;0.35;;;;;;;26.43;33.85;97523.19;7398234;19;20024;-86
2023/03/24 05:52:14;;;;;;;1.35;0.32;;;;;;;26.41;33.61;97528.81;7396793;19;20345;-88
2023/03/24 05:54:42;;;;;;;0.40;0.40;;;;;;;26.40;33.78;97538.75;7401470;19;20338;-88
2023/03/24 05:57:16;;;;;;;11.80;1.10;;;;;;;26.52;33.65;97530.78;7400394;19;20464;-88
2023/03/24 06:00:14;;;;;;;0.55;0.55;;;;;;;26.65;33.82;97524.25;7401933;19;20018;-88
2023/03/24 06:03:09;;;;;;;0.68;0.25;;;;;;;26.65;33.70;97518.53;7400332;19;20010;-88
2023/03/24 06:05:44;;;;;;;2.63;0.35;;;;;;;26.65;33.68;97524.25;7398482;19;20041;-88
2023/03/24 06:08:11;;;;;;;0.10;0.10;;;;;;;26.67;34.13;97510.06;7399719;19;20033;-88
2023/03/24 06:10:37;;;;;;;0.30;0.30;;;;;;;26.69;33.82;97513.00;7404326;19;20114;-88
2023/03/24 06:13:04;;;;;;;0.20;0.20;;;;;;;26.70;33.97;97513.75;7401956;19;20015;-89
2023/03/24 06:15:32;;;;;;;0.38;0.38;;;;;;;26.70;34.14;97520.22;7399743;19;20014;-88
2023/03/24 06:18:13;;;;;;;0.38;0.38;;;;;;;26.85;33.84;97508.06;7402295;19;20014;-88
2023/03/24 06:20:43;;;;;;;5.20;0.50;;;;;;;26.93;33.65;97508.44;7399363;19;20014;-88
2023/03/24 06:23:16;;;;;;;5.10;0.43;;;;;;;27.17;33.88;97505.91;7401101;19;20010;-88
2023/03/24 06:26:10;;;;;;;15.13;0.88;;;;;;;27.27;33.71;97511.34;7396288;19;20014;-89
2023/03/24 06:28:44;;;;;;;0.20;0.20;;;;;;;27.29;34.06;97505.72;7398910;19;20014;-89
2023/03/24 06:31:20;;;;;;;7.03;0.52;;;;;;;27.26;33.80;97512.72;7400039;19;20026;-88
2023/03/24 06:33:50;;;;;;;0.40;0.40;;;;;;;25.27;35.92;97512.38;7399200;19;20042;-88
2023/03/24 06:36:17;;;;;;;0.88;0.80;;;;;;;25.50;35.73;97509.31;7400840;19;20007;-88
2023/03/24 06:38:44;;;;;;;0.20;0.20;;;;;;;25.86;35.75;97516.13;7396610;19;20483;-86
2023/03/24 06:41:15;;;;;;;0.43;0.13;;;;;;;25.88;35.93;97511.22;7400981;19;20011;-88
2023/03/24 06:43:41;;;;;;;1.48;1.38;;;;;;;26.07;35.64;97507.16;7399173;19;20702;-87
2023/03/24 06:46:08;;;;;;;7.57;0.75;;;;;;;25.55;36.46;97508.88;7396270;19;20014;-88
2023/03/24 06:48:38;;;;;;;0.40;0.40;;;;;;;26.99;34.82;97496.53;7398154;19;20702;-86
2023/03/24 06:51:06;;;;;;;2.40;1.13;;;;;;;27.44;34.45;97502.13;7397092;19;20026;-86
2023/03/24 06:53:33;;;;;;;7.03;1.02;;;;;;;27.53;34.31;97507.53;7395909;19;20014;-87
2023/03/24 06:55:59;;;;;;;8.23;1.17;;;;;;;27.47;34.60;97506.53;7399662;19;20366;-88
2023/03/24 06:58:32;;;;;;;12.75;2.00;;;;;;;27.50;34.56;97505.25;7399670;19;20030;-88
2023/03/24 07:01:06;;;;;;;7.13;1.25;;;;;;;26.96;35.31;97518.56;7400192;19;20010;-89
2023/03/24 07:04:00;;;;;;;0.45;0.45;;;;;;;26.74;35.38;97516.81;7397342;19;20015;-91
2023/03/24 07:06:49;;;;;;;0.68;0.65;;;;;;;26.77;35.82;97521.97;7399978;19;20082;-90
2023/03/24 07:09:18;;;;;;;17.70;1.13;;;;;;;26.61;35.77;97518.34;7398768;19;20018;-90
2023/03/24 07:11:45;;;;;;;0.52;0.52;;;;;;;26.72;36.28;97511.72;7396863;19;20401;-89
2023/03/24 07:14:12;;;;;;;0.95;0.93;;;;;;;26.80;36.01;97517.84;7398958;19;20760;-88
2023/03/24 07:16:40;;;;;;;2.30;1.13;;;;;;;26.96;36.24;97512.84;7395492;19;20047;-89
2023/03/24 07:19:41;;;;;;;6.65;1.35;;;;;;;27.05;36.08;97511.81;7393660;19;20444;-89
2023/03/24 07:22:27;;;;;;;2.17;0.80;;;;;;;27.16;36.22;97518.00;7397957;19;20305;-89
2023/03/24 07:25:13;;;;;;;16.75;1.65;;;;;;;27.33;35.91;97511.63;7402504;19;20018;-87
2023/03/24 07:28:06;;;;;;;8.15;2.15;;;;;;;27.22;36.20;97515.41;7397584;19;20011;-87
2023/03/24 07:30:34;;;;;;;0.30;0.30;;;;;;;27.17;35.91;97513.75;7397698;19;20010;-86
2023/03/24 07:33:03;;;;;;;32.13;1.70;;;;;;;27.22;36.24;97515.41;7397140;19;20014;-87
2023/03/24 07:35:30;;;;;;;1.70;1.30;;;;;;;27.19;36.29;97513.84;7397102;19;20119;-87
2023/03/24 07:37:58;;;;;;;2.75;0.45;;;;;;;27.22;36.03;97524.72;7397409;19;20066;-87
2023/03/24 07:40:25;;;;;;;7.18;1.25;;;;;;;27.32;36.00;97524.44;7396655;19;20015;-86
2023/03/24 07:42:51;;;;;;;1.75;0.77;;;;;;;27.39;35.84;97521.22;7396626;19;20035;-86
2023/03/24 07:45:37;;;;;;;13.77;1.08;;;;;;;27.54;35.64;97520.44;7397179;19;20031;-87
2023/03/24 07:48:04;;;;;;;10.90;2.05;;;;;;;27.64;35.64;97531.56;7397128;19;20010;-88
2023/03/24 07:50:34;;;;;;;1.33;0.73;;;;;;;27.43;35.98;97529.97;7394927;19;20015;-88
2023/03/24 07:53:08;;;;;;;9.30;0.70;;;;;;;27.90;35.32;97524.09;7396448;19;20082;-87
2023/03/24 07:55:37;;;;;;;7.25;1.27;;;;;;;27.69;35.13;97527.50;7396230;19;20497;-87
2023/03/24 07:58:17;;;;;;;0.55;0.52;;;;;;;27.73;35.25;97539.84;7396382;19;20469;-86
2023/03/24 08:00:58;;;;;;;5.15;0.60;;;;;;;28.24;35.12;97536.97;7395850;19;20443;-87
2023/03/24 08:03:35;;;;;;;0.38;0.28;;;;;;;28.32;34.25;97533.72;7396889;19;20014;-87
2023/03/24 08:06:18;;;;;;;3.60;0.77;;;;;;;28.26;34.31;97536.34;7394663;19;20006;-88
2023/03/24 08:08:50;;;;;;;0.22;0.22;;;;;;;28.33;34.09;97544.50;7397884;19;20011;-87
2023/03/24 08:11:16;;;;;;;8.60;1.48;;;;;;;28.14;34.14;97542.31;7397493;19;20011;-87
2023/03/24 08:13:42;;;;;;;3.58;0.50;;;;;;;27.93;34.54;97557.13;7398348;19;20011;-87
2023/03/24 08:16:08;;;;;;;0.20;0.15;;;;;;;28.14;34.12;97548.03;7397949;19;20015;-88
2023/03/24 08:18:34;;;;;;;0.52;0.52;;;;;;;28.16;34.57;97556.69;7397531;19;20076;-88
2023/03/24 08:21:01;;;;;;;1.80;0.90;;;;;;;28.29;33.96;97564.38;7396821;19;20021;-86
2023/03/24 08:23:27;;;;;;;0.63;0.40;;;;;;;28.23;34.33;97549.84;7396745;19;20341;-87
2023/03/24 08:25:53;;;;;;;1.38;1.27;;;;;;;28.01;34.37;97560.34;7394824;19;20023;-87
2023/03/24 08:28:20;;;;;;;7.10;0.57;;;;;;;27.94;34.42;97561.47;7395140;19;20010;-87
2023/03/24 08:30:46;;;;;;;2.70;0.10;;;;;;;27.73;34.86;97562.00;7396288;19;20461;-87
2023/03/24 08:33:14;;;;;;;0.40;0.40;;;;;;;27.62;34.77;97562.94;7396620;19;20025;-87
2023/03/24 08:35:40;;;;;;;0.10;0.10;;;;;;;27.57;34.83;97567.03;7396710;19;20082;-87
2023/03/24 08:38:08;;;;;;;0.85;0.70;;;;;;;28.05;34.31;97568.38;7395980;19;20015;-87
2023/03/24 08:40:36;;;;;;;1.63;1.40;;;;;;;27.65;34.98;97568.13;7396564;19;20031;-87
2023/03/24 08:43:07;;;;;;;3.45;0.65;;;;;;;27.87;34.81;97571.19;7396200;19;20010;-87
2023/03/24 08:45:33;;;;;;;;;;;;;;;28.02;34.79;97581.88;7394978;19;20014;-88
2023/03/24 08:48:01;;;;;;;0.70;0.68;;;;;;;27.59;35.19;97578.56;7394265;19;20018;-87
2023/03/24 08:50:33;;;;;;;8.88;1.35;;;;;;;26.80;36.33;97574.97;7392570;19;20077;-87
2023/03/24 08:52:59;;;;;;;2.47;0.77;;;;;;;27.39;35.68;97574.81;7393222;19;20038;-88
2023/03/24 08:55:26;;;;;;;0.68;0.68;;;;;;;27.43;35.53;97574.97;7394165;19;20018;-87
2023/03/24 08:57:52;;;;;;;1.58;0.47;;;;;;;27.56;35.75;97577.72;7394983;19;20038;-87
2023/03/24 09:00:19;;;;;;;4.43;0.82;;;;;;;28.63;34.63;97575.78;7393459;19;20051;-86
2023/03/24 09:02:54;;;;;;;5.88;0.60;;;;;;;28.93;34.22;97585.56;7394869;19;20074;-88
2023/03/24 09:05:22;;;;;;;6.57;0.77;;;;;;;29.08;34.00;97581.84;7393638;19;20014;-86
2023/03/24 09:07:50;;;;;;;2.55;0.28;;;;;;;28.97;34.38;97582.84;7395251;19;20473;-87
2023/03/24 09:10:17;;;;;;;0.47;0.25;;;;;;;29.24;34.67;97588.19;7393782;19;20019;-87
2023/03/24 09:12:44;;;;;;;0.30;0.20;;;;;;;29.48;34.24;97577.63;7394702;19;20462;-86
2023/03/24 09:15:12;;;;;;;1.52;0.35;;;;;;;29.45;34.29;97576.09;7393788;19;20262;-87
2023/03/24 09:17:39;;;;;;;0.63;0.40;;;;;;;29.02;34.06;97575.88;7395330;19;20015;-88
2023/03/24 09:20:11;;;;;;;0.93;0.38;;;;;;;29.02;34.18;97575.88;7394795;19;20366;-87
2023/03/24 09:22:38;;;;;;;0.65;0.17;;;;;;;29.17;33.99;97572.91;7394995;19;20010;-88
2023/03/24 09:25:06;;;;;;;8.32;0.57;;;;;;;29.47;34.22;97576.16;7393649;19;20019;-88
2023/03/24 09:27:32;;;;;;;11.25;1.30;;;;;;;29.67;33.76;97576.88;7394221;19;20025;-86
2023/03/24 09:29:58;;;;;;;1.00;0.70;;;;;;;29.74;33.71;97569.97;7394755;19;20441;-87
2023/03/24 09:32:24;;;;;;;7.32;0.45;;;;;;;29.43;33.84;97564.53;7392459;19;20384;-86
2023/03/24 09:34:50;;;;;;;6.22;0.90;;;;;;;29.22;33.96;97568.78;7398716;19;20018;-87
2023/03/24 09:37:17;;;;;;;6.13;0.80;;;;;;;29.25;34.15;97563.88;7393463;19;20018;-88
2023/03/24 09:39:43;;;;;;;1.25;0.80;;;;;;;29.34;34.08;97562.78;7395238;19;20421;-86
2023/03/24 09:42:22;;;;;;;0.57;0.30;;;;;;;29.34;33.78;97565.66;7393613;19;20011;-85
2023/03/24 09:44:54;;;;;;;10.80;1.33;;;;;;;29.48;33.91;97571.13;7396152;19;20039;-85
2023/03/24 09:47:29;;;;;;;2.45;0.32;;;;;;;29.31;33.21;97569.81;7392912;19;20074;-85
2023/03/24 09:50:02;;;;;;;0.10;0.00;;;;;;;29.55;33.33;97564.22;7393465;19;20022;-86
2023/03/24 09:52:35;;;;;;;4.50;0.85;;;;;;;29.72;33.52;97558.41;7392800;19;20028;-86
2023/03/24 09:55:03;;;;;;;0.95;0.35;;;;;;;29.79;33.43;97565.84;7398247;19;20015;-85
2023/03/24 09:57:37;;;;;;;8.63;0.80;;;;;;;30.08;34.00;97566.81;7393383;19;20014;-87
2023/03/24 10:00:15;;;;;;;2.42;0.73;;;;;;;30.13;34.25;97571.28;7394388;19;20011;-85
2023/03/24 10:02:42;;;;;;;0.57;0.50;;;;;;;30.22;33.89;97570.16;7397812;19;20018;-84
2023/03/24 10:05:20;;;;;;;0.95;0.55;;;;;;;30.23;34.41;97565.88;7392036;19;20007;-86
2023/03/24 10:07:55;;;;;;;1.73;0.43;;;;;;;30.34;34.11;97568.44;7393142;19;20026;-86
2023/03/24 10:10:44;;;;;;;3.03;0.63;;;;;;;30.28;34.31;97561.72;7393865;19;20022;-86
2023/03/24 10:13:19;;;;;;;7.00;0.82;;;;;;;30.46;34.36;97559.47;7397868;19;20015;-85
2023/03/24 10:16:10;;;;;;;3.40;0.93;;;;;;;30.54;34.47;97553.97;7401359;19;20050;-85
2023/03/24 10:18:45;;;;;;;0.57;0.47;;;;;;;30.75;33.24;97556.09;7401296;19;20018;-85
2023/03/24 10:21:25;;;;;;;14.10;1.20;;;;;;;30.88;32.78;97549.34;7399617;19;20039;-85
2023/03/24 10:24:03;;;;;;;0.40;0.30;;;;;;;31.20;32.68;97541.66;7401158;19;20014;-85
2023/03/24 10:26:51;;;;;;;0.43;0.10;;;;;;;31.33;32.17;97534.84;7398518;19;20480;-84
2023/03/24 10:29:33;;;;;;;0.50;0.17;;;;;;;31.52;31.76;97535.38;7398715;19;20085;-85
2023/03/24 10:32:03;;;;;;;1.55;0.30;;;;;;;31.60;31.81;97553.59;7399184;19;20476;-84
2023/03/24 10:34:32;;;;;;;2.10;0.20;;;;;;;31.26;31.93;97538.97;7400788;19;20663;-85
2023/03/24 10:37:02;;;;;;;4.15;0.45;;;;;;;31.41;31.66;97537.97;7399535;19;20018;-85
2023/03/24 10:39:29;;;;;;;5.68;1.85;;;;;;;31.28;31.34;97546.91;7399491;19;20484;-84
2023/03/24 10:41:58;;;;;;;2.08;0.43;;;;;;;31.15;31.33;97545.09;7397979;19;20031;-85
2023/03/24 10:44:26;;;;;;;1.67;0.20;;;;;;;31.11;31.98;97557.22;7399621;19;20074;-85
2023/03/24 10:46:58;;;;;;;6.63;0.40;;;;;;;30.75;31.91;97550.34;7397180;19;20356;-86
2023/03/24 10:49:24;;;;;;;1.88;0.38;;;;;;;30.49;32.28;97570.34;7399738;19;20029;-86
2023/03/24 10:51:55;;;;;;;2.10;0.55;;;;;;;31.04;32.22;97558.44;7398232;19;20049;-86
2023/03/24 10:54:23;;;;;;;;;;;;;;;30.78;32.57;97566.25;7401405;19;20082;-86
2023/03/24 10:56:57;;;;;;;3.38;0.63;;;;;;;30.77;32.25;97578.41;7393800;19;19914;-87
2023/03/24 10:59:35;;;;;;;0.45;0.22;;;;;;;30.40;32.56;97585.16;7395707;19;20028;-87
2023/03/24 11:02:18;;;;;;;1.48;0.93;;;;;;;30.17;33.32;97591.53;7397847;19;20014;-89
2023/03/24 11:05:13;;;;;;;0.55;0.30;;;;;;;30.23;32.78;97600.34;7400763;19;20461;-89
2023/03/24 11:07:43;;;;;;;0.82;0.40;;;;;;;30.52;33.30;97583.41;7397693;19;20361;-89
2023/03/24 11:10:09;;;;;;;0.20;0.20;;;;;;;30.43;33.62;97575.91;7397743;19;20006;-88
2023/03/24 11:12:41;;;;;;;0.70;0.57;;;;;;;30.11;33.76;97574.09;7398422;19;20035;-90
2023/03/24 11:15:18;;;;;;;3.13;0.90;;;;;;;29.66;34.40;97575.41;7399851;19;20010;-92
2023/03/24 11:17:45;;;;;;;2.20;0.22;;;;;;;29.53;34.26;97573.50;7399506;19;20031;-84
2023/03/24 11:20:28;;;;;;;0.60;0.50;;;;;;;29.76;34.48;97572.91;7396717;19;20485;-83
2023/03/24 11:23:16;;;;;;;0.20;0.20;;;;;;;30.02;34.57;97563.75;7398228;19;20022;-86
2023/03/24 11:25:49;;;;;;;1.10;0.38;;;;;;;29.96;34.45;97559.25;7396333;19;20014;-83
2023/03/24 11:28:20;;;;;;;0.40;0.40;;;;;;;30.13;34.76;97562.66;7398311;19;20486;-83
2023/03/24 11:30:49;;;;;;;0.20;0.20;;;;;;;30.03;34.68;97568.06;7396690;19;20014;-85
2023/03/24 11:33:18;;;;;;;0.45;0.45;;;;;;;30.05;34.68;97582.50;7398219;19;20074;-88
2023/03/24 11:35:44;;;;;;;0.50;0.50;;;;;;;30.06;34.53;97567.47;7399495;19;20077;-89
2023/03/24 11:38:16;;;;;;;0.32;0.32;;;;;;;29.73;34.86;97591.44;7398479;19;20606;-88
2023/03/24 11:41:00;;;;;;;3.13;0.20;;;;;;;29.78;34.77;97572.97;7397173;19;20022;-92
2023/03/24 11:43:27;;;;;;;1.60;0.25;;;;;;;29.91;35.06;97566.25;7397701;19;20018;-87
2023/03/24 11:46:00;;;;;;;0.57;0.57;;;;;;;29.99;35.54;97560.78;7396024;19;20077;-86
2023/03/24 11:48:34;;;;;;;0.30;0.28;;;;;;;29.80;35.39;97578.78;7396622;19;20026;-85
2023/03/24 11:51:03;;;;;;;0.20;0.20;;;;;;;29.43;35.80;97570.28;7397413;19;20014;-85
2023/03/24 11:53:46;;;;;;;0.10;0.10;;;;;;;29.06;36.34;97568.16;7398052;19;20090;-86
2023/03/24 11:56:21;;;;;;;0.68;0.57;;;;;;;29.19;37.07;97569.38;7397728;19;20010;-83
2023/03/24 11:58:54;;;;;;;0.10;0.10;;;;;;;29.55;36.86;97567.09;7394963;19;20014;-83
2023/03/24 12:01:20;;;;;;;0.10;0.10;;;;;;;29.74;37.30;97561.38;7394535;19;20038;-83
2023/03/24 12:04:02;;;;;;;0.40;0.10;;;;;;;29.96;37.32;97550.66;7395354;19;20019;-74
2023/03/24 12:07:06;;;;;;;0.50;0.40;;;;;;;29.92;37.16;97539.03;7394248;19;20022;-74